Desert Springs, Nevada Weather observations

Data are for 10 minute period ending at time listed.
 Day   Time    Ave.   Ave.  Ave.  Vector   Max.   Total    Solar   
  of    of     Air    Rel.  Wind   Wind    Wind  Precip.   Rad.    
Year   Day     Temp.  Hum.  Speed  Dir.    Gust                    
2015   (PST)    F      %     mph   deg.    mph     in.     W/m2    
------------------------------------------------------------------- 
 182   23:00   77.0    30    7.0   248     19.0    4.09       0  
 183    0:00   76.0    29    9.0   213     13.0    4.09       0  
 183    1:00   77.0    31    8.0   172     14.0    4.09       0  
 183    2:00   73.0    37    3.0   224     11.0    4.09       0  
 183    3:00   70.0    39    3.0   266      6.0    4.09       0  
 183    4:00   70.0    37    6.0   247     11.0    4.09       0  
 183    5:00   71.0    37    6.0   239      9.0    4.09       1  
 183    6:00   72.0    36    3.0   275      8.0    4.09      47  
 183    7:00   74.0    35    4.0   253      9.0    4.09     160  
 183    8:00   81.0    29    1.0    36      5.0    4.09     359  
 183    9:00   83.0    25    5.0   301     11.0    4.09     594  
 183   10:00   86.0    23    4.0   327     12.0    4.09     741  
 183   11:00   90.0    19    4.0   148     11.0    4.09     835  
 183   12:00   92.0    18    4.0   204     13.0    4.09     935  
 183   13:00   95.0    17    5.0   225     14.0    4.09     947  
 183   14:00   97.0    14    6.0   360     16.0    4.09     921  
 183   15:00   92.0    17   11.0   116     17.0    4.09     504  
 183   16:00   91.0    18   15.0   282     22.0    4.09     377  
 183   17:00   84.0    33   23.0   267     35.0    4.09     153  
 183   18:00   79.0    35   26.0   249     48.0    4.09      18  
 183   19:00   74.0    51   17.0   284     26.0    4.09      14  
 183   20:00   70.0    64   13.0   286     31.0    4.09       4  
 183   21:00   67.0    73   10.0    75     18.0    4.11       0  
 183   22:00   67.0    78    7.0   256     12.0    4.11       0  

Return to Desert Springs, Nevada graphs page.


Western Regional Climate Center,wrcc@dri.edu